KNQI/NQI METAR and TAF weather

Enter ICAO airport designator
Station Type Date Time Source
KNQI METAR 2021/09/28 16:56 UTC NOAA

KNQI 281656Z 19014KT 10SM FEW035 SCT120 BKN160 BKN250 34/21 A2987 RMK AO2 SLP111 T03390211 $


Station Type Date Time Source
KNQI Decoded METAR 2021/09/28 16:56 UTC NOAA

KINGSVILLE NAS, TX, United States (KNQI) 27-50N 097-81W 15M
Sep 28, 2021 - 12:56 PM EDT / 2021.09.28 1656 UTC
Wind: from the S (190 degrees) at 16 MPH (14 KT):0
Visibility: 10 mile(s):0
Sky conditions: mostly cloudy
Temperature: 93.0 F (33.9 C)
Heat index: 99.0 F (37.2 C):1
Dew Point: 70.0 F (21.1 C)
Relative Humidity: 47%
Pressure (altimeter): 29.87 in. Hg (1011 hPa)
ob: KNQI 281656Z 19014KT 10SM FEW035 SCT120 BKN160 BKN250 34/21 A2987 RMK AO2 SLP111 T03390211
cycle: 17

Station Type Date Time Source
KNQI TAF 2021/09/28 15:51 UTC NOAA

TAF KNQI 2815/2915 18011KT 9999 SCT030 SCT120 BKN150 OVC250 621557 QNH2984INS
TEMPO 2815/2819 16015KT
BECMG 2819/2820 15012G18KT 9999 SCT040 SCT120 BKN160 BKN250 621607 QNH2975INS
FM282300 14016G22KT 9999 VCTS SCT045CB BKN150 OVC250 621507 QNH2974INS
BECMG 2903/2905 15011KT 9999 NSW SCT030 BKN150 OVC250 621605 QNH2981INS T34/2820Z T24/2912Z FN20042

Example: see airport list